Weather at San Francisco International Airport

Public forecast

Using degrees Fahrenheit for public forecast. Weather courtesy of forecast.io.

Current aviation weather report (METAR) for San Francisco International Airport

Retrieved 2021/07/29 05:56 UTC (21 minutes ago):

KSFO 290556Z 30012KT 10SM FEW004 FEW180 14/13 A2999 RMK AO2 SLP155 T01440128 10189 20144 51008

Aviation forecast (TAF) for San Francisco International Airport

Retrieved 2021/07/29 06:30 UTC (0 seconds ago):

TAF KSFO 290528Z 2906/3012 30010KT P6SM FEW010 FM291000 29005KT P6SM SCT008 FM291700 31007KT P6SM FEW010 FM292200 31019KT P6SM SKC FM300400 30011KT P6SM FEW010 FM301000 29005KT P6SM SCT008